sensor_id;sensor_type;location;lat;lon;timestamp;P1;durP1;ratioP1;P2;durP2;ratioP2
32292;SDS011;43233;48.608;8.838;2022-09-09T00:02:27;4.37;;;1.60;;
32292;SDS011;43233;48.608;8.838;2022-09-09T00:07:46;4.60;;;1.70;;
32292;SDS011;43233;48.608;8.838;2022-09-09T00:12:42;2.27;;;1.50;;
32292;SDS011;43233;48.608;8.838;2022-09-09T00:18:30;1.90;;;1.80;;
32292;SDS011;43233;48.608;8.838;2022-09-09T00:21:15;2.07;;;1.20;;
32292;SDS011;43233;48.608;8.838;2022-09-09T00:23:52;5.33;;;1.93;;
32292;SDS011;43233;48.608;8.838;2022-09-09T00:31:30;2.50;;;1.40;;
32292;SDS011;43233;48.608;8.838;2022-09-09T00:36:44;2.10;;;1.27;;
32292;SDS011;43233;48.608;8.838;2022-09-09T00:39:27;3.67;;;1.33;;
32292;SDS011;43233;48.608;8.838;2022-09-09T00:42:23;1.30;;;1.20;;
32292;SDS011;43233;48.608;8.838;2022-09-09T00:55:16;2.20;;;1.30;;
32292;SDS011;43233;48.608;8.838;2022-09-09T00:58:14;2.87;;;1.60;;
32292;SDS011;43233;48.608;8.838;2022-09-09T01:00:52;4.93;;;1.73;;
32292;SDS011;43233;48.608;8.838;2022-09-09T01:06:23;1.23;;;1.10;;
32292;SDS011;43233;48.608;8.838;2022-09-09T01:11:52;5.73;;;1.47;;
32292;SDS011;43233;48.608;8.838;2022-09-09T01:17:03;2.33;;;1.30;;
32292;SDS011;43233;48.608;8.838;2022-09-09T01:27:54;2.87;;;1.30;;
32292;SDS011;43233;48.608;8.838;2022-09-09T01:30:23;1.80;;;1.37;;
32292;SDS011;43233;48.608;8.838;2022-09-09T01:32:52;1.77;;;1.40;;
32292;SDS011;43233;48.608;8.838;2022-09-09T01:37:46;2.07;;;1.53;;
32292;SDS011;43233;48.608;8.838;2022-09-09T01:40:11;2.00;;;1.57;;
32292;SDS011;43233;48.608;8.838;2022-09-09T01:42:37;3.13;;;1.50;;
32292;SDS011;43233;48.608;8.838;2022-09-09T01:45:03;5.30;;;1.80;;
32292;SDS011;43233;48.608;8.838;2022-09-09T01:47:29;3.93;;;1.20;;
32292;SDS011;43233;48.608;8.838;2022-09-09T01:49:55;4.20;;;1.63;;
32292;SDS011;43233;48.608;8.838;2022-09-09T01:52:21;1.90;;;1.70;;
32292;SDS011;43233;48.608;8.838;2022-09-09T01:54:46;4.13;;;1.20;;
32292;SDS011;43233;48.608;8.838;2022-09-09T01:57:17;2.13;;;1.50;;
32292;SDS011;43233;48.608;8.838;2022-09-09T02:00:08;2.00;;;1.60;;
32292;SDS011;43233;48.608;8.838;2022-09-09T02:02:43;1.63;;;1.53;;
32292;SDS011;43233;48.608;8.838;2022-09-09T02:05:15;3.83;;;1.50;;
32292;SDS011;43233;48.608;8.838;2022-09-09T02:07:44;3.33;;;1.80;;
32292;SDS011;43233;48.608;8.838;2022-09-09T02:12:59;2.40;;;1.47;;
32292;SDS011;43233;48.608;8.838;2022-09-09T02:15:35;4.30;;;1.73;;
32292;SDS011;43233;48.608;8.838;2022-09-09T02:18:10;1.40;;;1.30;;
32292;SDS011;43233;48.608;8.838;2022-09-09T02:20:39;1.47;;;1.30;;
32292;SDS011;43233;48.608;8.838;2022-09-09T02:23:07;1.47;;;1.37;;
32292;SDS011;43233;48.608;8.838;2022-09-09T02:25:35;2.50;;;1.50;;
32292;SDS011;43233;48.608;8.838;2022-09-09T02:28:02;3.30;;;1.67;;
32292;SDS011;43233;48.608;8.838;2022-09-09T02:30:31;4.03;;;1.70;;
32292;SDS011;43233;48.608;8.838;2022-09-09T02:32:59;8.83;;;2.30;;
32292;SDS011;43233;48.608;8.838;2022-09-09T02:35:28;3.10;;;1.90;;
32292;SDS011;43233;48.608;8.838;2022-09-09T02:37:56;1.87;;;1.70;;
32292;SDS011;43233;48.608;8.838;2022-09-09T02:40:26;1.63;;;1.37;;
32292;SDS011;43233;48.608;8.838;2022-09-09T02:42:51;1.47;;;1.33;;
32292;SDS011;43233;48.608;8.838;2022-09-09T02:45:20;1.67;;;1.30;;
32292;SDS011;43233;48.608;8.838;2022-09-09T02:47:51;1.97;;;1.47;;
32292;SDS011;43233;48.608;8.838;2022-09-09T02:55:41;2.03;;;1.60;;
32292;SDS011;43233;48.608;8.838;2022-09-09T02:58:14;1.67;;;1.20;;
32292;SDS011;43233;48.608;8.838;2022-09-09T03:00:43;2.63;;;1.47;;
32292;SDS011;43233;48.608;8.838;2022-09-09T03:03:12;1.83;;;1.17;;
32292;SDS011;43233;48.608;8.838;2022-09-09T03:05:37;1.43;;;1.10;;
32292;SDS011;43233;48.608;8.838;2022-09-09T03:08:04;1.80;;;1.10;;
32292;SDS011;43233;48.608;8.838;2022-09-09T03:10:30;1.60;;;1.30;;
32292;SDS011;43233;48.608;8.838;2022-09-09T03:12:56;1.80;;;1.20;;
32292;SDS011;43233;48.608;8.838;2022-09-09T03:15:22;3.67;;;1.07;;
32292;SDS011;43233;48.608;8.838;2022-09-09T03:17:48;1.57;;;1.47;;
32292;SDS011;43233;48.608;8.838;2022-09-09T03:20:14;2.57;;;1.30;;
32292;SDS011;43233;48.608;8.838;2022-09-09T03:22:39;1.10;;;1.00;;
32292;SDS011;43233;48.608;8.838;2022-09-09T03:25:05;2.90;;;1.33;;
32292;SDS011;43233;48.608;8.838;2022-09-09T03:27:31;5.30;;;1.50;;
32292;SDS011;43233;48.608;8.838;2022-09-09T03:29:57;6.00;;;1.53;;
32292;SDS011;43233;48.608;8.838;2022-09-09T03:32:23;1.80;;;1.70;;
32292;SDS011;43233;48.608;8.838;2022-09-09T03:34:50;3.23;;;1.67;;
32292;SDS011;43233;48.608;8.838;2022-09-09T03:37:17;1.30;;;1.10;;
32292;SDS011;43233;48.608;8.838;2022-09-09T03:39:47;3.40;;;1.20;;
32292;SDS011;43233;48.608;8.838;2022-09-09T03:42:13;1.93;;;1.30;;
32292;SDS011;43233;48.608;8.838;2022-09-09T03:44:39;1.67;;;1.27;;
32292;SDS011;43233;48.608;8.838;2022-09-09T03:47:06;2.17;;;1.60;;
32292;SDS011;43233;48.608;8.838;2022-09-09T03:49:32;4.80;;;1.53;;
32292;SDS011;43233;48.608;8.838;2022-09-09T03:51:58;1.63;;;1.40;;
32292;SDS011;43233;48.608;8.838;2022-09-09T03:54:24;1.20;;;1.10;;
32292;SDS011;43233;48.608;8.838;2022-09-09T03:56:50;2.17;;;1.30;;
32292;SDS011;43233;48.608;8.838;2022-09-09T03:59:16;1.73;;;1.53;;
32292;SDS011;43233;48.608;8.838;2022-09-09T04:01:42;3.17;;;1.60;;
32292;SDS011;43233;48.608;8.838;2022-09-09T04:04:07;3.47;;;1.40;;
32292;SDS011;43233;48.608;8.838;2022-09-09T04:06:34;3.60;;;1.73;;
32292;SDS011;43233;48.608;8.838;2022-09-09T04:09:00;2.60;;;1.87;;
32292;SDS011;43233;48.608;8.838;2022-09-09T04:11:27;3.33;;;1.70;;
32292;SDS011;43233;48.608;8.838;2022-09-09T04:13:53;2.53;;;1.83;;
32292;SDS011;43233;48.608;8.838;2022-09-09T04:16:18;3.20;;;1.87;;
32292;SDS011;43233;48.608;8.838;2022-09-09T04:18:45;4.47;;;1.80;;
32292;SDS011;43233;48.608;8.838;2022-09-09T04:21:10;4.33;;;2.20;;
32292;SDS011;43233;48.608;8.838;2022-09-09T04:23:37;4.73;;;2.00;;
32292;SDS011;43233;48.608;8.838;2022-09-09T04:26:03;7.00;;;2.97;;
32292;SDS011;43233;48.608;8.838;2022-09-09T04:28:31;2.10;;;1.90;;
32292;SDS011;43233;48.608;8.838;2022-09-09T04:31:14;3.17;;;1.80;;
32292;SDS011;43233;48.608;8.838;2022-09-09T04:33:42;3.67;;;1.40;;
32292;SDS011;43233;48.608;8.838;2022-09-09T04:36:08;5.07;;;1.60;;
32292;SDS011;43233;48.608;8.838;2022-09-09T04:38:34;3.37;;;1.70;;
32292;SDS011;43233;48.608;8.838;2022-09-09T04:41:00;2.57;;;1.87;;
32292;SDS011;43233;48.608;8.838;2022-09-09T04:43:26;2.40;;;1.80;;
32292;SDS011;43233;48.608;8.838;2022-09-09T04:45:52;2.93;;;1.60;;
32292;SDS011;43233;48.608;8.838;2022-09-09T04:48:18;3.87;;;1.90;;
32292;SDS011;43233;48.608;8.838;2022-09-09T04:50:53;2.40;;;2.20;;
32292;SDS011;43233;48.608;8.838;2022-09-09T04:53:23;3.73;;;2.00;;
32292;SDS011;43233;48.608;8.838;2022-09-09T04:55:50;1.87;;;1.77;;
32292;SDS011;43233;48.608;8.838;2022-09-09T04:58:16;3.27;;;1.80;;
32292;SDS011;43233;48.608;8.838;2022-09-09T05:00:42;3.70;;;1.60;;
32292;SDS011;43233;48.608;8.838;2022-09-09T05:03:07;2.00;;;1.57;;
32292;SDS011;43233;48.608;8.838;2022-09-09T05:05:34;2.17;;;1.63;;
32292;SDS011;43233;48.608;8.838;2022-09-09T05:08:04;1.83;;;1.73;;
32292;SDS011;43233;48.608;8.838;2022-09-09T05:10:31;1.67;;;1.57;;
32292;SDS011;43233;48.608;8.838;2022-09-09T05:12:58;1.70;;;1.60;;
32292;SDS011;43233;48.608;8.838;2022-09-09T05:15:24;2.60;;;1.63;;
32292;SDS011;43233;48.608;8.838;2022-09-09T05:17:52;3.20;;;1.83;;
32292;SDS011;43233;48.608;8.838;2022-09-09T05:20:21;1.70;;;1.60;;
32292;SDS011;43233;48.608;8.838;2022-09-09T05:22:47;2.70;;;1.70;;
32292;SDS011;43233;48.608;8.838;2022-09-09T05:25:12;4.77;;;2.10;;
32292;SDS011;43233;48.608;8.838;2022-09-09T05:27:38;6.07;;;2.03;;
32292;SDS011;43233;48.608;8.838;2022-09-09T05:30:04;2.53;;;2.03;;
32292;SDS011;43233;48.608;8.838;2022-09-09T05:32:30;4.00;;;1.50;;
32292;SDS011;43233;48.608;8.838;2022-09-09T05:34:59;2.10;;;1.90;;
32292;SDS011;43233;48.608;8.838;2022-09-09T05:37:24;3.37;;;1.70;;
32292;SDS011;43233;48.608;8.838;2022-09-09T05:39:50;2.50;;;2.07;;
32292;SDS011;43233;48.608;8.838;2022-09-09T05:42:16;4.20;;;2.13;;
32292;SDS011;43233;48.608;8.838;2022-09-09T05:44:42;4.70;;;1.90;;
32292;SDS011;43233;48.608;8.838;2022-09-09T05:47:08;2.80;;;2.00;;
32292;SDS011;43233;48.608;8.838;2022-09-09T05:49:34;1.67;;;1.57;;
32292;SDS011;43233;48.608;8.838;2022-09-09T05:51:59;7.37;;;1.90;;
32292;SDS011;43233;48.608;8.838;2022-09-09T05:54:25;2.47;;;1.60;;
32292;SDS011;43233;48.608;8.838;2022-09-09T05:56:50;3.00;;;1.60;;
32292;SDS011;43233;48.608;8.838;2022-09-09T05:59:17;2.03;;;1.43;;
32292;SDS011;43233;48.608;8.838;2022-09-09T06:01:43;5.87;;;2.10;;
32292;SDS011;43233;48.608;8.838;2022-09-09T06:04:10;4.23;;;2.00;;
32292;SDS011;43233;48.608;8.838;2022-09-09T06:06:36;7.53;;;1.90;;
32292;SDS011;43233;48.608;8.838;2022-09-09T06:09:05;2.70;;;1.80;;
32292;SDS011;43233;48.608;8.838;2022-09-09T06:11:34;2.20;;;2.10;;
32292;SDS011;43233;48.608;8.838;2022-09-09T06:14:02;4.43;;;2.20;;
32292;SDS011;43233;48.608;8.838;2022-09-09T06:16:28;2.73;;;1.90;;
32292;SDS011;43233;48.608;8.838;2022-09-09T06:18:57;2.53;;;2.07;;
32292;SDS011;43233;48.608;8.838;2022-09-09T06:21:24;4.17;;;1.70;;
32292;SDS011;43233;48.608;8.838;2022-09-09T06:23:52;4.17;;;2.33;;
32292;SDS011;43233;48.608;8.838;2022-09-09T06:28:49;2.00;;;1.80;;
32292;SDS011;43233;48.608;8.838;2022-09-09T06:31:18;2.93;;;1.93;;
32292;SDS011;43233;48.608;8.838;2022-09-09T06:33:49;6.53;;;1.50;;
32292;SDS011;43233;48.608;8.838;2022-09-09T06:36:22;2.33;;;1.80;;
32292;SDS011;43233;48.608;8.838;2022-09-09T06:38:50;1.60;;;1.50;;
32292;SDS011;43233;48.608;8.838;2022-09-09T06:41:16;2.60;;;1.43;;
32292;SDS011;43233;48.608;8.838;2022-09-09T06:43:44;1.57;;;1.47;;
32292;SDS011;43233;48.608;8.838;2022-09-09T06:46:23;1.53;;;1.43;;
32292;SDS011;43233;48.608;8.838;2022-09-09T06:48:53;5.83;;;1.83;;
32292;SDS011;43233;48.608;8.838;2022-09-09T06:51:23;8.20;;;2.23;;
32292;SDS011;43233;48.608;8.838;2022-09-09T06:53:51;4.50;;;2.10;;
32292;SDS011;43233;48.608;8.838;2022-09-09T06:56:31;1.80;;;1.70;;
32292;SDS011;43233;48.608;8.838;2022-09-09T06:58:59;2.80;;;1.83;;
32292;SDS011;43233;48.608;8.838;2022-09-09T07:01:32;3.83;;;2.30;;
32292;SDS011;43233;48.608;8.838;2022-09-09T07:03:59;3.57;;;1.70;;
32292;SDS011;43233;48.608;8.838;2022-09-09T07:06:26;4.80;;;2.17;;
32292;SDS011;43233;48.608;8.838;2022-09-09T07:08:54;4.07;;;2.20;;
32292;SDS011;43233;48.608;8.838;2022-09-09T07:11:25;3.00;;;2.10;;
32292;SDS011;43233;48.608;8.838;2022-09-09T07:13:53;2.50;;;1.40;;
32292;SDS011;43233;48.608;8.838;2022-09-09T07:16:21;15.57;;;2.60;;
32292;SDS011;43233;48.608;8.838;2022-09-09T07:18:50;2.27;;;1.73;;
32292;SDS011;43233;48.608;8.838;2022-09-09T07:21:16;4.87;;;2.40;;
32292;SDS011;43233;48.608;8.838;2022-09-09T07:23:46;4.30;;;1.73;;
32292;SDS011;43233;48.608;8.838;2022-09-09T07:26:13;3.83;;;2.50;;
32292;SDS011;43233;48.608;8.838;2022-09-09T07:28:40;6.83;;;2.40;;
32292;SDS011;43233;48.608;8.838;2022-09-09T07:31:06;6.17;;;2.27;;
32292;SDS011;43233;48.608;8.838;2022-09-09T07:33:38;12.40;;;2.37;;
32292;SDS011;43233;48.608;8.838;2022-09-09T07:36:09;14.23;;;1.80;;
32292;SDS011;43233;48.608;8.838;2022-09-09T07:38:40;2.30;;;1.63;;
32292;SDS011;43233;48.608;8.838;2022-09-09T07:41:09;9.23;;;2.63;;
32292;SDS011;43233;48.608;8.838;2022-09-09T07:43:40;5.63;;;2.03;;
32292;SDS011;43233;48.608;8.838;2022-09-09T07:46:07;3.70;;;2.17;;
32292;SDS011;43233;48.608;8.838;2022-09-09T07:48:33;6.73;;;2.60;;
32292;SDS011;43233;48.608;8.838;2022-09-09T07:51:20;4.70;;;1.80;;
32292;SDS011;43233;48.608;8.838;2022-09-09T07:53:57;5.63;;;2.20;;
32292;SDS011;43233;48.608;8.838;2022-09-09T07:56:27;5.97;;;1.93;;
32292;SDS011;43233;48.608;8.838;2022-09-09T07:58:55;1.80;;;1.60;;
32292;SDS011;43233;48.608;8.838;2022-09-09T08:01:22;2.70;;;1.80;;
32292;SDS011;43233;48.608;8.838;2022-09-09T08:03:57;12.87;;;1.93;;
32292;SDS011;43233;48.608;8.838;2022-09-09T08:06:41;5.03;;;1.93;;
32292;SDS011;43233;48.608;8.838;2022-09-09T08:09:09;1.73;;;1.50;;
32292;SDS011;43233;48.608;8.838;2022-09-09T08:11:35;2.83;;;1.23;;
32292;SDS011;43233;48.608;8.838;2022-09-09T08:14:02;8.13;;;1.53;;
32292;SDS011;43233;48.608;8.838;2022-09-09T08:16:29;3.90;;;1.53;;
32292;SDS011;43233;48.608;8.838;2022-09-09T08:18:57;3.20;;;1.67;;
32292;SDS011;43233;48.608;8.838;2022-09-09T08:21:25;2.03;;;1.40;;
32292;SDS011;43233;48.608;8.838;2022-09-09T08:23:53;1.63;;;1.50;;
32292;SDS011;43233;48.608;8.838;2022-09-09T08:26:21;4.20;;;1.33;;
32292;SDS011;43233;48.608;8.838;2022-09-09T08:28:52;4.20;;;1.77;;
32292;SDS011;43233;48.608;8.838;2022-09-09T08:31:20;3.03;;;1.40;;
32292;SDS011;43233;48.608;8.838;2022-09-09T08:33:47;4.57;;;2.20;;
32292;SDS011;43233;48.608;8.838;2022-09-09T08:36:19;6.33;;;1.70;;
32292;SDS011;43233;48.608;8.838;2022-09-09T08:38:47;8.43;;;1.57;;
32292;SDS011;43233;48.608;8.838;2022-09-09T08:52:09;1.77;;;0.90;;
32292;SDS011;43233;48.608;8.838;2022-09-09T08:54:41;3.97;;;1.40;;
32292;SDS011;43233;48.608;8.838;2022-09-09T08:57:09;3.20;;;1.30;;
32292;SDS011;43233;48.608;8.838;2022-09-09T08:59:46;1.80;;;1.20;;
32292;SDS011;43233;48.608;8.838;2022-09-09T09:02:17;4.43;;;1.40;;
32292;SDS011;43233;48.608;8.838;2022-09-09T09:04:56;6.40;;;1.77;;
32292;SDS011;43233;48.608;8.838;2022-09-09T09:10:48;4.63;;;1.60;;
32292;SDS011;43233;48.608;8.838;2022-09-09T09:13:34;4.93;;;1.30;;
32292;SDS011;43233;48.608;8.838;2022-09-09T09:16:06;4.50;;;1.47;;
32292;SDS011;43233;48.608;8.838;2022-09-09T09:18:53;2.03;;;1.50;;
32292;SDS011;43233;48.608;8.838;2022-09-09T09:21:30;4.50;;;1.80;;
32292;SDS011;43233;48.608;8.838;2022-09-09T09:24:00;5.70;;;1.83;;
32292;SDS011;43233;48.608;8.838;2022-09-09T09:26:31;5.73;;;1.60;;
32292;SDS011;43233;48.608;8.838;2022-09-09T09:29:01;5.60;;;2.33;;
32292;SDS011;43233;48.608;8.838;2022-09-09T09:31:37;6.73;;;1.60;;
32292;SDS011;43233;48.608;8.838;2022-09-09T09:34:03;6.43;;;2.00;;
32292;SDS011;43233;48.608;8.838;2022-09-09T09:36:38;8.70;;;2.33;;
32292;SDS011;43233;48.608;8.838;2022-09-09T09:41:52;10.23;;;1.60;;
32292;SDS011;43233;48.608;8.838;2022-09-09T09:44:29;4.30;;;2.00;;
32292;SDS011;43233;48.608;8.838;2022-09-09T09:47:10;4.23;;;1.83;;
32292;SDS011;43233;48.608;8.838;2022-09-09T09:49:39;1.90;;;1.47;;
32292;SDS011;43233;48.608;8.838;2022-09-09T09:52:25;1.93;;;1.70;;
32292;SDS011;43233;48.608;8.838;2022-09-09T09:54:53;2.80;;;1.47;;
32292;SDS011;43233;48.608;8.838;2022-09-09T09:57:27;7.53;;;1.60;;
32292;SDS011;43233;48.608;8.838;2022-09-09T10:00:02;7.73;;;1.70;;
32292;SDS011;43233;48.608;8.838;2022-09-09T10:02:37;4.43;;;1.50;;
32292;SDS011;43233;48.608;8.838;2022-09-09T10:05:08;4.03;;;1.40;;
32292;SDS011;43233;48.608;8.838;2022-09-09T10:07:45;1.83;;;1.33;;
32292;SDS011;43233;48.608;8.838;2022-09-09T10:10:13;7.07;;;1.50;;
32292;SDS011;43233;48.608;8.838;2022-09-09T10:15:40;2.07;;;1.67;;
32292;SDS011;43233;48.608;8.838;2022-09-09T10:18:31;5.87;;;1.67;;
32292;SDS011;43233;48.608;8.838;2022-09-09T10:32:33;5.00;;;1.37;;
32292;SDS011;43233;48.608;8.838;2022-09-09T10:55:10;5.10;;;1.60;;
32292;SDS011;43233;48.608;8.838;2022-09-09T10:57:46;4.97;;;1.60;;
32292;SDS011;43233;48.608;8.838;2022-09-09T11:00:24;3.60;;;1.77;;
32292;SDS011;43233;48.608;8.838;2022-09-09T11:02:58;6.30;;;1.20;;
32292;SDS011;43233;48.608;8.838;2022-09-09T11:05:31;2.27;;;1.20;;
32292;SDS011;43233;48.608;8.838;2022-09-09T11:08:06;0.90;;;0.90;;
32292;SDS011;43233;48.608;8.838;2022-09-09T11:10:55;1.80;;;1.50;;
32292;SDS011;43233;48.608;8.838;2022-09-09T11:22:16;1.00;;;0.90;;
32292;SDS011;43233;48.608;8.838;2022-09-09T11:24:58;0.90;;;0.80;;
32292;SDS011;43233;48.608;8.838;2022-09-09T11:33:16;2.87;;;1.00;;
32292;SDS011;43233;48.608;8.838;2022-09-09T11:38:45;1.33;;;1.00;;
32292;SDS011;43233;48.608;8.838;2022-09-09T11:41:15;1.10;;;1.00;;
32292;SDS011;43233;48.608;8.838;2022-09-09T11:43:43;0.90;;;0.90;;
32292;SDS011;43233;48.608;8.838;2022-09-09T11:46:09;2.70;;;0.80;;
32292;SDS011;43233;48.608;8.838;2022-09-09T11:48:38;0.90;;;0.80;;
32292;SDS011;43233;48.608;8.838;2022-09-09T11:51:25;0.90;;;0.90;;
32292;SDS011;43233;48.608;8.838;2022-09-09T11:56:29;2.10;;;1.20;;
32292;SDS011;43233;48.608;8.838;2022-09-09T12:01:30;2.40;;;0.80;;
32292;SDS011;43233;48.608;8.838;2022-09-09T12:07:04;1.37;;;1.00;;
32292;SDS011;43233;48.608;8.838;2022-09-09T12:09:49;2.20;;;1.47;;
32292;SDS011;43233;48.608;8.838;2022-09-09T12:14:55;1.03;;;1.00;;
32292;SDS011;43233;48.608;8.838;2022-09-09T12:17:25;2.07;;;1.00;;
32292;SDS011;43233;48.608;8.838;2022-09-09T12:25:30;2.07;;;1.07;;
32292;SDS011;43233;48.608;8.838;2022-09-09T12:28:21;3.73;;;1.80;;
32292;SDS011;43233;48.608;8.838;2022-09-09T12:31:01;2.53;;;1.10;;
32292;SDS011;43233;48.608;8.838;2022-09-09T12:33:42;3.43;;;1.17;;
32292;SDS011;43233;48.608;8.838;2022-09-09T12:36:11;0.80;;;0.80;;
32292;SDS011;43233;48.608;8.838;2022-09-09T12:38:44;2.73;;;1.20;;
32292;SDS011;43233;48.608;8.838;2022-09-09T12:41:20;5.60;;;0.90;;
32292;SDS011;43233;48.608;8.838;2022-09-09T12:43:47;12.90;;;1.70;;
32292;SDS011;43233;48.608;8.838;2022-09-09T12:46:21;1.03;;;0.83;;
32292;SDS011;43233;48.608;8.838;2022-09-09T12:48:53;4.57;;;1.23;;
32292;SDS011;43233;48.608;8.838;2022-09-09T12:53:55;3.00;;;1.20;;
32292;SDS011;43233;48.608;8.838;2022-09-09T12:56:27;1.47;;;1.00;;
32292;SDS011;43233;48.608;8.838;2022-09-09T12:58:55;3.47;;;1.53;;
32292;SDS011;43233;48.608;8.838;2022-09-09T13:03:50;1.87;;;1.00;;
32292;SDS011;43233;48.608;8.838;2022-09-09T13:06:18;1.60;;;0.80;;
32292;SDS011;43233;48.608;8.838;2022-09-09T13:08:49;2.70;;;1.23;;
32292;SDS011;43233;48.608;8.838;2022-09-09T13:11:20;1.17;;;0.80;;
32292;SDS011;43233;48.608;8.838;2022-09-09T13:13:56;3.23;;;0.97;;
32292;SDS011;43233;48.608;8.838;2022-09-09T13:16:25;2.00;;;0.80;;
32292;SDS011;43233;48.608;8.838;2022-09-09T13:18:57;1.53;;;1.23;;
32292;SDS011;43233;48.608;8.838;2022-09-09T13:21:34;2.23;;;1.40;;
32292;SDS011;43233;48.608;8.838;2022-09-09T13:24:02;2.30;;;1.00;;
32292;SDS011;43233;48.608;8.838;2022-09-09T13:27:02;4.33;;;1.80;;
32292;SDS011;43233;48.608;8.838;2022-09-09T13:29:52;5.07;;;1.47;;
32292;SDS011;43233;48.608;8.838;2022-09-09T13:32:21;1.07;;;0.97;;
32292;SDS011;43233;48.608;8.838;2022-09-09T13:37:21;1.90;;;1.30;;
32292;SDS011;43233;48.608;8.838;2022-09-09T13:40:02;3.63;;;1.13;;
32292;SDS011;43233;48.608;8.838;2022-09-09T13:42:32;1.53;;;0.90;;
32292;SDS011;43233;48.608;8.838;2022-09-09T13:45:01;1.03;;;0.80;;
32292;SDS011;43233;48.608;8.838;2022-09-09T13:47:33;2.30;;;0.97;;
32292;SDS011;43233;48.608;8.838;2022-09-09T13:50:17;2.73;;;1.57;;
32292;SDS011;43233;48.608;8.838;2022-09-09T13:52:51;2.47;;;1.10;;
32292;SDS011;43233;48.608;8.838;2022-09-09T13:55:23;1.30;;;1.20;;
32292;SDS011;43233;48.608;8.838;2022-09-09T13:57:58;2.03;;;0.90;;
32292;SDS011;43233;48.608;8.838;2022-09-09T14:00:26;1.60;;;1.13;;
32292;SDS011;43233;48.608;8.838;2022-09-09T14:02:54;1.13;;;0.70;;
32292;SDS011;43233;48.608;8.838;2022-09-09T14:05:20;1.70;;;0.90;;
32292;SDS011;43233;48.608;8.838;2022-09-09T14:07:47;1.50;;;1.00;;
32292;SDS011;43233;48.608;8.838;2022-09-09T14:10:14;0.93;;;0.80;;
32292;SDS011;43233;48.608;8.838;2022-09-09T14:12:40;2.10;;;0.97;;
32292;SDS011;43233;48.608;8.838;2022-09-09T14:15:06;3.73;;;0.90;;
32292;SDS011;43233;48.608;8.838;2022-09-09T14:17:34;0.90;;;0.90;;
32292;SDS011;43233;48.608;8.838;2022-09-09T14:20:01;1.53;;;0.73;;
32292;SDS011;43233;48.608;8.838;2022-09-09T14:22:28;1.40;;;0.87;;
32292;SDS011;43233;48.608;8.838;2022-09-09T14:24:54;1.13;;;0.87;;
32292;SDS011;43233;48.608;8.838;2022-09-09T14:27:20;4.07;;;1.40;;
32292;SDS011;43233;48.608;8.838;2022-09-09T14:29:45;4.00;;;1.17;;
32292;SDS011;43233;48.608;8.838;2022-09-09T14:32:11;9.10;;;1.17;;
32292;SDS011;43233;48.608;8.838;2022-09-09T14:34:37;1.37;;;1.00;;
32292;SDS011;43233;48.608;8.838;2022-09-09T14:37:03;1.47;;;0.93;;
32292;SDS011;43233;48.608;8.838;2022-09-09T14:39:28;1.23;;;1.00;;
32292;SDS011;43233;48.608;8.838;2022-09-09T14:41:54;6.33;;;0.90;;
32292;SDS011;43233;48.608;8.838;2022-09-09T14:44:20;1.37;;;0.73;;
32292;SDS011;43233;48.608;8.838;2022-09-09T14:46:46;1.90;;;1.33;;
32292;SDS011;43233;48.608;8.838;2022-09-09T14:49:15;1.67;;;1.00;;
32292;SDS011;43233;48.608;8.838;2022-09-09T14:51:40;4.50;;;0.97;;
32292;SDS011;43233;48.608;8.838;2022-09-09T14:54:06;2.80;;;1.30;;
32292;SDS011;43233;48.608;8.838;2022-09-09T14:56:33;2.40;;;0.97;;
32292;SDS011;43233;48.608;8.838;2022-09-09T14:59:02;1.80;;;1.00;;
32292;SDS011;43233;48.608;8.838;2022-09-09T15:01:27;2.80;;;1.13;;
32292;SDS011;43233;48.608;8.838;2022-09-09T15:06:25;3.00;;;1.13;;
32292;SDS011;43233;48.608;8.838;2022-09-09T15:08:55;1.70;;;1.00;;
32292;SDS011;43233;48.608;8.838;2022-09-09T15:11:25;3.20;;;1.60;;
32292;SDS011;43233;48.608;8.838;2022-09-09T15:13:52;2.70;;;1.10;;
32292;SDS011;43233;48.608;8.838;2022-09-09T15:16:19;1.73;;;0.97;;
32292;SDS011;43233;48.608;8.838;2022-09-09T15:18:49;3.33;;;0.93;;
32292;SDS011;43233;48.608;8.838;2022-09-09T15:21:17;4.10;;;1.00;;
32292;SDS011;43233;48.608;8.838;2022-09-09T15:23:45;0.90;;;0.70;;
32292;SDS011;43233;48.608;8.838;2022-09-09T15:26:12;3.80;;;1.70;;
32292;SDS011;43233;48.608;8.838;2022-09-09T15:28:42;1.77;;;1.60;;
32292;SDS011;43233;48.608;8.838;2022-09-09T15:33:51;0.80;;;0.80;;
32292;SDS011;43233;48.608;8.838;2022-09-09T15:36:22;2.07;;;1.57;;
32292;SDS011;43233;48.608;8.838;2022-09-09T15:38:49;2.30;;;1.47;;
32292;SDS011;43233;48.608;8.838;2022-09-09T15:41:19;8.00;;;1.40;;
32292;SDS011;43233;48.608;8.838;2022-09-09T15:43:56;2.43;;;1.00;;
32292;SDS011;43233;48.608;8.838;2022-09-09T15:48:55;2.07;;;1.30;;
32292;SDS011;43233;48.608;8.838;2022-09-09T15:51:23;1.90;;;1.00;;
32292;SDS011;43233;48.608;8.838;2022-09-09T15:53:56;4.43;;;1.20;;
32292;SDS011;43233;48.608;8.838;2022-09-09T15:56:23;2.00;;;0.90;;
32292;SDS011;43233;48.608;8.838;2022-09-09T15:58:50;4.90;;;1.37;;
32292;SDS011;43233;48.608;8.838;2022-09-09T16:01:17;5.10;;;1.37;;
32292;SDS011;43233;48.608;8.838;2022-09-09T16:03:44;2.30;;;0.93;;
32292;SDS011;43233;48.608;8.838;2022-09-09T16:06:11;1.97;;;1.00;;
32292;SDS011;43233;48.608;8.838;2022-09-09T16:08:40;1.43;;;0.87;;
32292;SDS011;43233;48.608;8.838;2022-09-09T16:11:17;1.17;;;0.90;;
32292;SDS011;43233;48.608;8.838;2022-09-09T16:13:48;0.83;;;0.70;;
32292;SDS011;43233;48.608;8.838;2022-09-09T16:16:17;2.50;;;0.80;;
32292;SDS011;43233;48.608;8.838;2022-09-09T16:18:51;1.90;;;0.70;;
32292;SDS011;43233;48.608;8.838;2022-09-09T16:23:47;3.83;;;0.80;;
32292;SDS011;43233;48.608;8.838;2022-09-09T16:26:14;1.03;;;0.70;;
32292;SDS011;43233;48.608;8.838;2022-09-09T16:28:41;1.17;;;0.70;;
32292;SDS011;43233;48.608;8.838;2022-09-09T16:31:09;1.00;;;0.77;;
32292;SDS011;43233;48.608;8.838;2022-09-09T16:33:38;0.80;;;0.70;;
32292;SDS011;43233;48.608;8.838;2022-09-09T16:36:06;1.10;;;0.60;;
32292;SDS011;43233;48.608;8.838;2022-09-09T16:38:33;1.83;;;0.83;;
32292;SDS011;43233;48.608;8.838;2022-09-09T16:41:00;1.77;;;0.80;;
32292;SDS011;43233;48.608;8.838;2022-09-09T16:43:27;1.07;;;1.03;;
32292;SDS011;43233;48.608;8.838;2022-09-09T16:45:52;1.03;;;0.80;;
32292;SDS011;43233;48.608;8.838;2022-09-09T16:48:18;1.17;;;0.60;;
32292;SDS011;43233;48.608;8.838;2022-09-09T16:50:45;0.97;;;0.90;;
32292;SDS011;43233;48.608;8.838;2022-09-09T16:53:11;0.80;;;0.80;;
32292;SDS011;43233;48.608;8.838;2022-09-09T16:55:38;0.90;;;0.80;;
32292;SDS011;43233;48.608;8.838;2022-09-09T16:58:05;0.77;;;0.77;;
32292;SDS011;43233;48.608;8.838;2022-09-09T17:00:31;0.80;;;0.80;;
32292;SDS011;43233;48.608;8.838;2022-09-09T17:02:56;2.97;;;1.00;;
32292;SDS011;43233;48.608;8.838;2022-09-09T17:05:23;1.07;;;0.80;;
32292;SDS011;43233;48.608;8.838;2022-09-09T17:07:50;1.77;;;0.93;;
32292;SDS011;43233;48.608;8.838;2022-09-09T17:10:16;2.07;;;0.90;;
32292;SDS011;43233;48.608;8.838;2022-09-09T17:12:41;1.93;;;0.87;;
32292;SDS011;43233;48.608;8.838;2022-09-09T17:15:07;3.83;;;2.30;;
32292;SDS011;43233;48.608;8.838;2022-09-09T17:17:33;1.30;;;1.20;;
32292;SDS011;43233;48.608;8.838;2022-09-09T17:20:00;1.20;;;0.90;;
32292;SDS011;43233;48.608;8.838;2022-09-09T17:22:27;2.23;;;1.37;;
32292;SDS011;43233;48.608;8.838;2022-09-09T17:24:53;2.40;;;1.43;;
32292;SDS011;43233;48.608;8.838;2022-09-09T17:27:19;4.20;;;1.33;;
32292;SDS011;43233;48.608;8.838;2022-09-09T17:29:45;1.87;;;0.97;;
32292;SDS011;43233;48.608;8.838;2022-09-09T17:32:11;1.20;;;1.10;;
32292;SDS011;43233;48.608;8.838;2022-09-09T17:34:37;1.10;;;1.10;;
32292;SDS011;43233;48.608;8.838;2022-09-09T17:37:03;3.43;;;1.80;;
32292;SDS011;43233;48.608;8.838;2022-09-09T17:39:31;1.77;;;1.67;;
32292;SDS011;43233;48.608;8.838;2022-09-09T17:41:57;7.13;;;3.50;;
32292;SDS011;43233;48.608;8.838;2022-09-09T17:44:22;4.93;;;4.00;;